Time;durP1;ratioP1;P1;durP2;ratioP2;P2;SDS_P1;SDS_P2;PMS_P1;PMS_P2;Temp;Humidity;BMP_temperature;BMP_pressure;BME280_temperature;BME280_humidity;BME280_pressure;Samples;Min_cycle;Max_cycle;Signal;HPM_P1;HPM_P2
2023/12/07 00:01:29;;;;;;;8.27;4.40;;;2.50;99.90;;;;;;5084187;28;20040;-68
2023/12/07 00:03:54;;;;;;;8.63;4.50;;;2.60;99.90;;;;;;5085248;28;20031;-68
2023/12/07 00:06:20;;;;;;;7.57;4.30;;;2.60;99.90;;;;;;5086170;28;20166;-67
2023/12/07 00:08:45;;;;;;;9.90;4.90;;;2.50;99.90;;;;;;5091184;28;20388;-67
2023/12/07 00:11:11;;;;;;;13.50;5.30;;;2.60;99.90;;;;;;5082977;28;20512;-68
2023/12/07 00:13:37;;;;;;;11.47;4.30;;;2.60;99.90;;;;;;5081404;28;20048;-68
2023/12/07 00:16:02;;;;;;;6.80;3.53;;;2.60;99.90;;;;;;5083434;28;20070;-68
2023/12/07 00:18:28;;;;;;;11.07;4.00;;;2.60;99.90;;;;;;5073752;28;20044;-68
2023/12/07 00:20:54;;;;;;;9.60;4.77;;;2.60;99.90;;;;;;5079497;28;20097;-68
2023/12/07 00:23:19;;;;;;;7.93;4.77;;;2.60;99.90;;;;;;5084416;28;20064;-68
2023/12/07 00:25:45;;;;;;;8.20;4.40;;;2.50;99.90;;;;;;5081353;28;20145;-68
2023/12/07 00:28:11;;;;;;;12.43;4.32;;;2.60;99.90;;;;;;5082165;28;20462;-68
2023/12/07 00:30:39;;;;;;;9.35;5.00;;;2.60;99.90;;;;;;5085158;28;20054;-67
2023/12/07 00:33:09;;;;;;;8.27;4.10;;;2.60;99.90;;;;;;5088612;28;20056;-68
2023/12/07 00:35:35;;;;;;;7.95;4.03;;;2.50;99.90;;;;;;5087528;28;20059;-68
2023/12/07 00:38:02;;;;;;;6.45;3.45;;;2.60;99.90;;;;;;5067118;28;20126;-67
2023/12/07 00:40:27;;;;;;;6.20;3.78;;;2.50;99.90;;;;;;5080881;28;20049;-68
2023/12/07 00:42:53;;;;;;;6.37;3.87;;;2.50;99.90;;;;;;5085366;28;20044;-68
2023/12/07 00:45:21;;;;;;;11.17;4.43;;;2.50;99.90;;;;;;5064194;28;20090;-67
2023/12/07 00:47:47;;;;;;;9.13;4.38;;;2.60;99.90;;;;;;5075968;28;20755;-67
2023/12/07 00:50:15;;;;;;;8.13;4.13;;;2.50;99.90;;;;;;5087626;28;20111;-67
2023/12/07 00:52:41;;;;;;;9.45;4.25;;;2.60;99.90;;;;;;5083737;28;20237;-68
2023/12/07 00:55:07;;;;;;;8.73;4.73;;;2.50;99.90;;;;;;5087568;28;20492;-68
2023/12/07 00:57:32;;;;;;;7.73;4.23;;;2.40;99.90;;;;;;5081890;28;20123;-68
2023/12/07 00:59:58;;;;;;;7.47;4.43;;;2.50;99.90;;;;;;5087291;28;20556;-68
2023/12/07 01:02:24;;;;;;;8.07;4.30;;;2.40;99.90;;;;;;5089763;28;20430;-68
2023/12/07 01:04:49;;;;;;;9.00;4.17;;;2.40;99.90;;;;;;5078998;28;20044;-67
2023/12/07 01:07:15;;;;;;;9.37;4.53;;;2.30;99.90;;;;;;5082888;28;20515;-68
2023/12/07 01:09:41;;;;;;;10.83;4.43;;;2.30;99.90;;;;;;5080446;28;20044;-67
2023/12/07 01:12:06;;;;;;;9.10;4.80;;;2.30;99.90;;;;;;5078294;28;20135;-67
2023/12/07 01:14:32;;;;;;;7.67;4.40;;;2.20;99.90;;;;;;5062932;28;20047;-77
2023/12/07 01:16:58;;;;;;;10.67;4.70;;;2.20;99.90;;;;;;5055835;28;20040;-68
2023/12/07 01:19:24;;;;;;;7.63;4.30;;;2.10;99.90;;;;;;5078646;28;20404;-68
2023/12/07 01:21:50;;;;;;;8.00;4.28;;;2.10;99.90;;;;;;5077141;28;21101;-68
2023/12/07 01:24:23;;;;;;;7.73;4.23;;;2.10;99.90;;;;;;5089574;28;20040;-68
2023/12/07 01:26:49;;;;;;;8.80;4.43;;;2.00;99.90;;;;;;5080865;28;20051;-68
2023/12/07 01:29:14;;;;;;;10.73;4.67;;;2.00;99.90;;;;;;5083187;28;20032;-68
2023/12/07 01:31:41;;;;;;;8.20;3.93;;;2.00;99.90;;;;;;5075404;28;20064;-68
2023/12/07 01:34:06;;;;;;;7.90;4.35;;;2.00;99.90;;;;;;5077801;28;20408;-68
2023/12/07 01:36:35;;;;;;;10.90;4.78;;;1.90;99.90;;;;;;5076229;28;20044;-67
2023/12/07 01:39:00;;;;;;;10.33;4.83;;;2.00;99.90;;;;;;5077850;28;20467;-68
2023/12/07 01:41:26;;;;;;;9.07;4.73;;;2.00;99.90;;;;;;5075352;28;20348;-68
2023/12/07 01:43:51;;;;;;;9.90;4.70;;;2.00;99.90;;;;;;5081086;28;20484;-67
2023/12/07 01:46:18;;;;;;;8.90;4.00;;;2.00;99.90;;;;;;5076913;28;20055;-67
2023/12/07 01:48:44;;;;;;;7.30;4.38;;;2.00;99.90;;;;;;5078510;28;20028;-68
2023/12/07 01:51:12;;;;;;;11.73;5.22;;;2.00;99.90;;;;;;5081028;28;20044;-68
2023/12/07 01:53:39;;;;;;;9.97;5.53;;;2.00;99.90;;;;;;5075074;28;20044;-68
2023/12/07 01:56:06;;;;;;;9.77;4.88;;;2.10;99.90;;;;;;5077973;28;20044;-68
2023/12/07 01:58:32;;;;;;;11.77;5.50;;;2.10;99.90;;;;;;5085553;28;20086;-68
2023/12/07 02:00:58;;;;;;;7.80;4.17;;;2.20;99.90;;;;;;5080638;28;20480;-68
2023/12/07 02:03:24;;;;;;;6.60;4.17;;;2.20;99.90;;;;;;5081787;28;20036;-68
2023/12/07 02:05:51;;;;;;;9.87;4.50;;;2.20;99.90;;;;;;5080774;27;20032;-68
2023/12/07 02:08:17;;;;;;;7.43;4.00;;;2.10;99.90;;;;;;5074764;28;20039;-68
2023/12/07 02:10:42;;;;;;;7.03;4.13;;;2.30;99.90;;;;;;5088471;28;20040;-68
2023/12/07 02:13:08;;;;;;;7.33;4.60;;;2.30;99.90;;;;;;5090085;28;20404;-68
2023/12/07 02:15:35;;;;;;;9.60;4.97;;;2.30;99.90;;;;;;5080832;28;20036;-68
2023/12/07 02:18:19;;;;;;;8.30;4.70;;;2.30;99.90;;;;;;5081246;28;20060;-67
2023/12/07 02:21:14;;;;;;;12.25;5.60;;;2.20;99.90;;;;;;5078100;28;20040;-68
2023/12/07 02:23:41;;;;;;;8.27;4.35;;;2.20;99.90;;;;;;5071469;28;20475;-68
2023/12/07 02:26:10;;;;;;;10.00;4.72;;;2.20;99.90;;;;;;5078225;28;20127;-68
2023/12/07 02:28:38;;;;;;;10.05;5.07;;;2.20;99.90;;;;;;5061199;28;20127;-68
2023/12/07 02:31:04;;;;;;;8.98;4.00;;;2.20;99.90;;;;;;5079956;28;20051;-68
2023/12/07 02:33:30;;;;;;;8.60;4.67;;;2.10;99.90;;;;;;5065014;28;20421;-68
2023/12/07 02:36:01;;;;;;;8.37;4.23;;;2.10;99.90;;;;;;5056424;28;20313;-67
2023/12/07 02:38:28;;;;;;;9.23;4.40;;;2.00;99.90;;;;;;5073042;28;20071;-68
2023/12/07 02:40:55;;;;;;;9.20;4.60;;;2.00;99.90;;;;;;5077789;28;20172;-68
2023/12/07 02:43:24;;;;;;;10.40;4.68;;;2.00;99.90;;;;;;5080473;28;20051;-68
2023/12/07 02:45:49;;;;;;;14.40;5.40;;;1.90;99.90;;;;;;5064987;28;20063;-68
2023/12/07 02:48:17;;;;;;;10.30;5.30;;;1.90;99.90;;;;;;5077793;28;20067;-68
2023/12/07 02:50:43;;;;;;;8.38;4.90;;;1.80;99.90;;;;;;5079463;28;20063;-68
2023/12/07 02:53:11;;;;;;;9.10;4.27;;;1.80;99.90;;;;;;5077204;28;20484;-68
2023/12/07 02:55:37;;;;;;;6.50;3.80;;;1.70;99.90;;;;;;5078245;28;20284;-68
2023/12/07 02:58:02;;;;;;;9.47;4.67;;;1.70;99.90;;;;;;5085532;28;20605;-68
2023/12/07 03:00:28;;;;;;;10.50;4.87;;;1.60;99.90;;;;;;5075140;28;20371;-68
2023/12/07 03:02:56;;;;;;;9.20;4.50;;;1.60;99.90;;;;;;5080697;28;20430;-68
2023/12/07 03:05:23;;;;;;;7.90;4.55;;;1.60;99.90;;;;;;5082278;28;20044;-68
2023/12/07 03:07:48;;;;;;;7.78;4.38;;;1.60;99.90;;;;;;5080447;28;20040;-68
2023/12/07 03:10:14;;;;;;;9.83;4.87;;;1.60;99.90;;;;;;5076914;28;20097;-68
2023/12/07 03:12:42;;;;;;;9.80;4.70;;;1.50;99.90;;;;;;5086967;28;20085;-68
2023/12/07 03:15:13;;;;;;;9.93;4.72;;;1.50;99.90;;;;;;5075166;28;20075;-68
2023/12/07 03:17:39;;;;;;;9.25;5.05;;;1.50;99.90;;;;;;5076504;28;20043;-68
2023/12/07 03:20:10;;;;;;;9.67;4.50;;;1.40;99.90;;;;;;5072879;28;20102;-68
2023/12/07 03:22:35;;;;;;;9.57;5.00;;;1.40;99.90;;;;;;5062314;28;20190;-68
2023/12/07 03:25:01;;;;;;;11.73;5.10;;;1.40;99.90;;;;;;5084281;28;20204;-68
2023/12/07 03:27:28;;;;;;;11.87;5.00;;;1.30;99.90;;;;;;5083092;28;20093;-68
2023/12/07 03:29:56;;;;;;;10.57;5.22;;;1.30;99.90;;;;;;5078673;28;20148;-68
2023/12/07 03:32:25;;;;;;;13.07;5.78;;;1.30;99.90;;;;;;5080326;28;20040;-68
2023/12/07 03:34:50;;;;;;;10.87;5.10;;;1.30;99.90;;;;;;5051993;28;20050;-68
2023/12/07 03:37:18;;;;;;;14.93;6.03;;;1.20;99.90;;;;;;5081382;28;20161;-68
2023/12/07 03:39:47;;;;;;;10.15;5.72;;;1.20;99.90;;;;;;5080767;28;20035;-68
2023/12/07 03:42:15;;;;;;;11.73;4.82;;;1.30;99.90;;;;;;5080529;28;20028;-68
2023/12/07 03:44:43;;;;;;;10.57;4.68;;;1.20;99.90;;;;;;5076705;28;20039;-68
2023/12/07 03:47:11;;;;;;;9.93;5.20;;;1.20;99.90;;;;;;5063806;28;20138;-68
2023/12/07 03:49:42;;;;;;;12.27;5.93;;;1.20;99.90;;;;;;5086370;28;20124;-68
2023/12/07 03:52:08;;;;;;;10.60;5.13;;;1.20;99.90;;;;;;5077996;28;20091;-68
2023/12/07 03:54:34;;;;;;;11.87;5.37;;;1.20;99.90;;;;;;5081117;28;20084;-68
2023/12/07 03:57:02;;;;;;;12.93;5.20;;;1.30;99.90;;;;;;5077070;28;20554;-68
2023/12/07 03:59:36;;;;;;;12.32;5.45;;;1.20;99.90;;;;;;5084400;28;20040;-68
2023/12/07 04:02:01;;;;;;;9.10;4.90;;;1.20;99.90;;;;;;5073719;28;20098;-68
2023/12/07 04:04:27;;;;;;;10.33;4.90;;;1.20;99.90;;;;;;5078517;28;20040;-68
2023/12/07 04:06:53;;;;;;;10.90;4.97;;;1.20;99.90;;;;;;5077220;28;20448;-68
2023/12/07 04:09:19;;;;;;;13.40;4.70;;;1.10;99.90;;;;;;5080615;28;20054;-68
2023/12/07 04:11:47;;;;;;;11.15;5.40;;;1.10;99.90;;;;;;5075586;28;20071;-68
2023/12/07 04:14:15;;;;;;;10.23;4.90;;;1.10;99.90;;;;;;5089071;28;20483;-68
2023/12/07 04:16:41;;;;;;;11.23;5.87;;;1.10;99.90;;;;;;5075581;28;20066;-68
2023/12/07 04:19:06;;;;;;;9.60;4.87;;;1.10;99.90;;;;;;5070447;28;20040;-68
2023/12/07 04:21:32;;;;;;;9.73;5.10;;;1.10;99.90;;;;;;5081466;28;20056;-68
2023/12/07 04:24:00;;;;;;;9.87;4.70;;;1.10;99.90;;;;;;5080369;28;20109;-68
2023/12/07 04:26:26;;;;;;;10.38;5.85;;;1.10;99.90;;;;;;5073682;28;20133;-68
2023/12/07 04:28:51;;;;;;;10.97;5.50;;;1.10;99.90;;;;;;5072831;28;20051;-68
2023/12/07 04:31:17;;;;;;;13.67;6.37;;;1.10;99.90;;;;;;5073727;28;20101;-68
2023/12/07 04:33:42;;;;;;;13.37;6.93;;;1.10;99.90;;;;;;5080294;28;20122;-68
2023/12/07 04:36:09;;;;;;;10.23;5.83;;;1.10;99.90;;;;;;5074921;28;20079;-68
2023/12/07 04:38:34;;;;;;;12.80;5.95;;;1.10;99.90;;;;;;5073904;28;20163;-68
2023/12/07 04:41:02;;;;;;;11.43;5.60;;;1.10;99.90;;;;;;5077793;28;20212;-68
2023/12/07 04:43:28;;;;;;;12.60;6.32;;;1.10;99.90;;;;;;5079840;28;20036;-68
2023/12/07 04:45:54;;;;;;;12.73;6.07;;;1.10;99.90;;;;;;5057436;28;20059;-68
2023/12/07 04:48:19;;;;;;;11.50;5.37;;;1.10;99.90;;;;;;5077768;28;20089;-68
2023/12/07 04:50:45;;;;;;;12.20;5.37;;;1.10;99.90;;;;;;5079264;28;20051;-68
2023/12/07 04:53:11;;;;;;;11.30;5.40;;;1.00;99.90;;;;;;5083026;28;20044;-68
2023/12/07 04:55:36;;;;;;;13.70;6.30;;;1.10;99.90;;;;;;5081739;28;20044;-68
2023/12/07 04:58:02;;;;;;;12.37;6.50;;;1.00;99.90;;;;;;5079083;28;20078;-68
2023/12/07 05:00:28;;;;;;;12.63;5.93;;;1.10;99.90;;;;;;5080634;28;20064;-68
2023/12/07 05:02:53;;;;;;;14.40;6.90;;;1.00;99.90;;;;;;5075959;28;20039;-68
2023/12/07 05:05:19;;;;;;;13.70;6.43;;;1.10;99.90;;;;;;5079042;28;20043;-68
2023/12/07 05:07:45;;;;;;;14.67;6.30;;;1.00;99.90;;;;;;5086550;28;20492;-68
2023/12/07 05:10:10;;;;;;;14.10;6.77;;;1.00;99.90;;;;;;5082940;28;20044;-68
2023/12/07 05:12:36;;;;;;;13.77;6.57;;;1.00;99.90;;;;;;5081409;28;20085;-68
2023/12/07 05:15:04;;;;;;;13.27;5.97;;;1.00;99.90;;;;;;5083721;28;20136;-68
2023/12/07 05:17:30;;;;;;;12.43;6.28;;;1.00;99.90;;;;;;5062946;28;20036;-68
2023/12/07 05:19:55;;;;;;;12.77;6.30;;;1.00;99.90;;;;;;5062305;28;20046;-68
2023/12/07 05:22:21;;;;;;;12.23;6.43;;;1.00;99.90;;;;;;5084892;28;20038;-68
2023/12/07 05:24:47;;;;;;;14.03;6.50;;;1.00;99.90;;;;;;5094510;28;20036;-68
2023/12/07 05:27:12;;;;;;;14.57;6.10;;;1.00;99.90;;;;;;5061503;28;20058;-68
2023/12/07 05:29:40;;;;;;;12.87;6.17;;;1.00;99.90;;;;;;5075208;28;20421;-72
2023/12/07 05:32:06;;;;;;;16.67;6.43;;;1.10;99.90;;;;;;5088502;28;20032;-68
2023/12/07 05:34:33;;;;;;;12.17;6.00;;;1.00;99.90;;;;;;5077936;28;20127;-70
2023/12/07 05:36:59;;;;;;;12.57;6.72;;;1.00;99.90;;;;;;5082271;28;20158;-68
2023/12/07 05:39:24;;;;;;;11.13;6.07;;;1.00;99.90;;;;;;5085409;28;20544;-76
2023/12/07 05:41:52;;;;;;;11.30;5.83;;;1.00;99.90;;;;;;5080439;28;20036;-75
2023/12/07 05:44:21;;;;;;;14.65;6.28;;;1.00;99.90;;;;;;5078598;28;20033;-74
2023/12/07 05:46:53;;;;;;;14.38;6.63;;;1.00;99.90;;;;;;5074863;28;20032;-72
2023/12/07 05:49:23;;;;;;;14.27;6.20;;;1.00;99.90;;;;;;5068842;28;20488;-68
2023/12/07 05:51:49;;;;;;;10.18;5.45;;;1.00;99.90;;;;;;5076692;28;20064;-68
2023/12/07 05:54:17;;;;;;;19.40;6.70;;;1.00;99.90;;;;;;5063652;28;20075;-69
2023/12/07 05:56:43;;;;;;;16.17;6.47;;;1.00;99.90;;;;;;5061473;28;20087;-68
2023/12/07 05:59:08;;;;;;;10.70;5.53;;;1.00;99.90;;;;;;5076846;28;20076;-68
2023/12/07 06:01:34;;;;;;;13.40;6.20;;;1.00;99.90;;;;;;5073344;28;20051;-68
2023/12/07 06:03:59;;;;;;;12.27;6.50;;;1.00;99.90;;;;;;5082717;28;20519;-68
2023/12/07 06:06:25;;;;;;;14.07;6.50;;;1.00;99.90;;;;;;5076405;28;20038;-68
2023/12/07 06:08:51;;;;;;;12.23;6.77;;;1.00;99.90;;;;;;5082069;28;20040;-68
2023/12/07 06:11:16;;;;;;;15.15;6.60;;;1.00;99.90;;;;;;5077494;28;20043;-68
2023/12/07 06:13:42;;;;;;;14.70;7.33;;;1.00;99.90;;;;;;5091300;28;20043;-68
2023/12/07 06:16:14;;;;;;;12.38;7.03;;;1.10;99.90;;;;;;5083330;28;20623;-68
2023/12/07 06:18:43;;;;;;;14.35;6.15;;;1.00;99.90;;;;;;5083871;28;20070;-68
2023/12/07 06:21:08;;;;;;;12.18;6.63;;;1.00;99.90;;;;;;5076322;28;20084;-68
2023/12/07 06:23:35;;;;;;;12.47;6.37;;;1.00;99.90;;;;;;5061455;28;20060;-68
2023/12/07 06:26:05;;;;;;;11.48;5.95;;;1.00;99.90;;;;;;5083962;28;20051;-68
2023/12/07 06:28:32;;;;;;;15.15;6.57;;;0.90;99.90;;;;;;5067601;28;20052;-68
2023/12/07 06:30:58;;;;;;;12.18;5.78;;;0.80;99.90;;;;;;5078669;28;20412;-68
2023/12/07 06:33:24;;;;;;;11.90;6.35;;;0.80;99.90;;;;;;5079109;28;20075;-68
2023/12/07 06:35:53;;;;;;;14.30;6.77;;;0.80;99.90;;;;;;5084059;28;20035;-68
2023/12/07 06:38:20;;;;;;;13.13;6.68;;;0.70;99.90;;;;;;5090157;28;20044;-68
2023/12/07 06:40:45;;;;;;;15.38;7.03;;;0.70;99.90;;;;;;5079473;28;20051;-68
2023/12/07 06:43:16;;;;;;;14.35;6.22;;;0.70;99.90;;;;;;5077249;28;20143;-69
2023/12/07 06:45:44;;;;;;;13.27;6.07;;;0.70;99.90;;;;;;5084519;28;21571;-70
2023/12/07 06:48:10;;;;;;;15.65;7.25;;;0.60;99.90;;;;;;5078391;28;20450;-74
2023/12/07 06:50:37;;;;;;;13.67;7.00;;;0.60;99.90;;;;;;5086635;28;20039;-71
2023/12/07 06:53:03;;;;;;;13.68;6.55;;;0.50;99.90;;;;;;5087639;28;20043;-71
2023/12/07 06:55:32;;;;;;;12.87;6.20;;;0.50;99.90;;;;;;5092995;28;20415;-69
2023/12/07 06:57:57;;;;;;;13.50;6.65;;;0.50;99.90;;;;;;5090185;28;20046;-70
2023/12/07 07:00:24;;;;;;;14.30;7.40;;;0.50;99.90;;;;;;5080666;28;20041;-74
2023/12/07 07:02:50;;;;;;;;;;;0.40;99.90;;;;;;5061144;28;20032;-74
2023/12/07 07:05:19;;;;;;;16.65;7.47;;;0.40;99.90;;;;;;5084393;28;19923;-68
2023/12/07 07:07:45;;;;;;;15.52;6.95;;;0.50;99.90;;;;;;5083082;28;20131;-68
2023/12/07 07:10:12;;;;;;;15.80;7.27;;;0.50;99.90;;;;;;5078295;28;20131;-68
2023/12/07 07:12:37;;;;;;;;;;;0.50;99.90;;;;;;5072767;28;20583;-68
2023/12/07 07:15:03;;;;;;;16.73;7.07;;;0.60;99.90;;;;;;5078751;28;19998;-68
2023/12/07 07:17:29;;;;;;;17.17;7.53;;;0.60;99.90;;;;;;5080244;28;20538;-68
2023/12/07 07:20:00;;;;;;;19.23;8.50;;;0.60;99.90;;;;;;5085931;28;20051;-68
2023/12/07 07:22:29;;;;;;;20.48;8.90;;;0.60;99.90;;;;;;5076308;28;20064;-68
2023/12/07 07:24:54;;;;;;;19.95;9.00;;;0.60;99.90;;;;;;5079859;28;20306;-68
2023/12/07 07:27:20;;;;;;;19.27;8.97;;;0.60;99.90;;;;;;5092038;28;20277;-68
2023/12/07 07:29:48;;;;;;;20.70;9.73;;;0.60;99.90;;;;;;5072300;28;20039;-67
2023/12/07 07:32:14;;;;;;;18.85;9.18;;;0.60;99.90;;;;;;5086510;28;20062;-68
2023/12/07 07:34:39;;;;;;;21.20;9.77;;;0.60;99.90;;;;;;5077173;28;20484;-68
2023/12/07 07:37:06;;;;;;;19.43;9.20;;;0.50;99.90;;;;;;5083297;28;20047;-68
2023/12/07 07:39:32;;;;;;;19.90;8.55;;;0.50;99.90;;;;;;5087309;28;20055;-68
2023/12/07 07:41:58;;;;;;;21.43;10.00;;;0.50;99.90;;;;;;5076469;28;21263;-68
2023/12/07 07:44:26;;;;;;;25.27;9.17;;;0.50;99.90;;;;;;5082237;28;20276;-68
2023/12/07 07:46:52;;;;;;;22.70;8.88;;;0.40;99.90;;;;;;5079112;28;20056;-68
2023/12/07 07:49:17;;;;;;;22.07;10.70;;;0.40;99.90;;;;;;5083111;28;20044;-68
2023/12/07 07:51:43;;;;;;;22.87;9.53;;;0.40;99.90;;;;;;5084774;28;20119;-68
2023/12/07 07:54:09;;;;;;;20.73;9.87;;;0.40;99.90;;;;;;5078224;28;20406;-68
2023/12/07 07:56:35;;;;;;;21.60;9.47;;;0.40;99.90;;;;;;5085202;28;20055;-68
2023/12/07 07:59:01;;;;;;;22.13;10.25;;;0.40;99.90;;;;;;5085180;28;20039;-68
2023/12/07 08:01:27;;;;;;;20.20;9.57;;;0.40;99.90;;;;;;5079003;28;20127;-68
2023/12/07 08:03:52;;;;;;;21.80;10.53;;;0.40;99.90;;;;;;5061956;28;20250;-67
2023/12/07 08:06:18;;;;;;;21.47;9.47;;;0.50;99.90;;;;;;5081928;28;20403;-68
2023/12/07 08:08:44;;;;;;;21.30;10.35;;;0.50;99.90;;;;;;5088394;28;20123;-67
2023/12/07 08:11:09;;;;;;;20.63;8.90;;;0.50;99.90;;;;;;5084924;28;20186;-68
2023/12/07 08:13:35;;;;;;;19.60;8.83;;;0.50;99.90;;;;;;5089934;28;20119;-67
2023/12/07 08:16:01;;;;;;;20.30;10.53;;;0.50;99.90;;;;;;5085505;28;20055;-68
2023/12/07 08:18:26;;;;;;;20.80;10.10;;;0.50;99.90;;;;;;5083166;28;20031;-68
2023/12/07 08:20:52;;;;;;;22.37;9.93;;;0.50;99.90;;;;;;5068956;28;20497;-68
2023/12/07 08:23:18;;;;;;;26.53;10.00;;;0.50;99.90;;;;;;5079478;28;20170;-68
2023/12/07 08:25:43;;;;;;;23.13;11.23;;;0.50;99.90;;;;;;5079879;28;20041;-68
2023/12/07 08:28:09;;;;;;;19.40;10.00;;;0.50;99.90;;;;;;5067120;28;20398;-68
2023/12/07 08:30:36;;;;;;;23.45;11.02;;;0.50;99.90;;;;;;5085104;28;20060;-68
2023/12/07 08:33:02;;;;;;;23.42;10.10;;;0.60;99.90;;;;;;5084463;28;20056;-68
2023/12/07 08:35:27;;;;;;;19.33;9.90;;;0.60;99.90;;;;;;5091094;28;20055;-68
2023/12/07 08:37:53;;;;;;;24.40;10.97;;;0.60;99.90;;;;;;5070176;28;20066;-68
2023/12/07 08:40:19;;;;;;;20.67;9.83;;;0.60;99.90;;;;;;5086121;28;20047;-67
2023/12/07 08:42:46;;;;;;;22.70;10.67;;;0.60;99.90;;;;;;5085673;28;20102;-68
2023/12/07 08:45:13;;;;;;;26.60;9.57;;;0.70;99.90;;;;;;5088123;28;20118;-68
2023/12/07 08:47:39;;;;;;;23.63;10.77;;;0.70;99.90;;;;;;5079686;28;20036;-68
2023/12/07 08:50:07;;;;;;;38.58;14.02;;;0.70;99.90;;;;;;5088903;28;20044;-69
2023/12/07 08:52:33;;;;;;;36.10;14.20;;;0.70;99.90;;;;;;5082636;28;20047;-68
2023/12/07 08:54:59;;;;;;;32.80;12.98;;;0.70;99.90;;;;;;5089667;28;20497;-68
2023/12/07 08:57:25;;;;;;;27.10;11.93;;;0.80;99.90;;;;;;5088968;28;20044;-69
2023/12/07 08:59:50;;;;;;;25.93;11.27;;;0.80;99.90;;;;;;5086765;28;20036;-68
2023/12/07 09:02:17;;;;;;;26.40;11.47;;;0.80;99.90;;;;;;5086582;28;20349;-68
2023/12/07 09:04:42;;;;;;;21.92;11.32;;;0.80;99.90;;;;;;5077233;28;20059;-69
2023/12/07 09:07:09;;;;;;;19.53;9.50;;;0.80;99.90;;;;;;5082107;28;20048;-69
2023/12/07 09:09:34;;;;;;;21.70;10.50;;;0.80;99.90;;;;;;5080175;28;20324;-68
2023/12/07 09:12:00;;;;;;;24.13;11.47;;;0.90;99.90;;;;;;5079361;28;20711;-69
2023/12/07 09:14:26;;;;;;;23.77;11.50;;;0.90;99.90;;;;;;5089032;28;20059;-69
2023/12/07 09:16:52;;;;;;;21.40;10.60;;;0.90;99.90;;;;;;5080054;28;20531;-69
2023/12/07 09:19:18;;;;;;;22.30;10.98;;;0.90;99.90;;;;;;5078508;28;20119;-69
2023/12/07 09:21:43;;;;;;;21.30;10.80;;;1.00;99.90;;;;;;5079995;28;20135;-69
2023/12/07 09:24:09;;;;;;;27.80;11.27;;;0.90;99.90;;;;;;5084890;28;20048;-68
2023/12/07 09:26:36;;;;;;;18.90;9.83;;;1.00;99.90;;;;;;5067239;28;20064;-69
2023/12/07 09:29:01;;;;;;;22.92;11.00;;;1.00;99.90;;;;;;5082336;28;20044;-69
2023/12/07 09:31:27;;;;;;;23.70;11.27;;;1.10;99.90;;;;;;5080064;27;20131;-68
2023/12/07 09:33:53;;;;;;;24.03;11.53;;;1.10;99.90;;;;;;5078694;28;20037;-71
2023/12/07 09:36:21;;;;;;;28.33;12.15;;;1.20;99.90;;;;;;5085911;28;20100;-74
2023/12/07 09:38:46;;;;;;;22.60;10.52;;;1.20;99.90;;;;;;5088328;28;20044;-68
2023/12/07 09:41:12;;;;;;;19.90;10.17;;;1.30;99.90;;;;;;5088950;28;20047;-71
2023/12/07 09:43:38;;;;;;;21.33;10.77;;;1.30;99.90;;;;;;5082969;28;20175;-69
2023/12/07 09:46:05;;;;;;;28.13;11.50;;;1.40;99.90;;;;;;5082711;28;20040;-68
2023/12/07 09:48:31;;;;;;;22.05;10.52;;;1.40;99.90;;;;;;5085964;28;20122;-69
2023/12/07 09:51:00;;;;;;;20.35;10.30;;;1.50;99.90;;;;;;5078151;28;20058;-70
2023/12/07 09:53:29;;;;;;;21.30;9.60;;;1.50;99.90;;;;;;5084579;28;20381;-70
2023/12/07 09:55:54;;;;;;;24.23;11.20;;;1.60;99.90;;;;;;5081110;28;20377;-73
2023/12/07 09:58:20;;;;;;;22.37;11.20;;;1.70;99.90;;;;;;5082222;28;20051;-72
2023/12/07 10:00:47;;;;;;;27.47;12.00;;;1.80;99.90;;;;;;5064825;28;20036;-70
2023/12/07 10:03:23;;;;;;;23.98;10.77;;;1.80;99.90;;;;;;5075497;28;20043;-68
2023/12/07 10:05:57;;;;;;;20.00;10.50;;;1.90;99.90;;;;;;5078261;28;20089;-69
2023/12/07 10:08:35;;;;;;;19.58;10.25;;;2.00;99.90;;;;;;5087551;28;20058;-78
2023/12/07 10:11:05;;;;;;;23.52;12.05;;;2.10;99.90;;;;;;5074988;28;20138;-68
2023/12/07 10:13:32;;;;;;;29.92;12.50;;;2.10;99.90;;;;;;5075214;28;20930;-69
2023/12/07 10:16:16;;;;;;;22.90;11.40;;;2.20;99.90;;;;;;5089061;28;20048;-69
2023/12/07 10:18:42;;;;;;;26.88;12.90;;;2.30;99.90;;;;;;5070699;28;20562;-69
2023/12/07 10:21:09;;;;;;;25.55;12.93;;;2.40;99.90;;;;;;5061727;28;20127;-69
2023/12/07 10:23:36;;;;;;;23.95;12.13;;;2.40;99.90;;;;;;5075272;28;20071;-68
2023/12/07 10:26:02;;;;;;;26.13;12.88;;;2.50;99.90;;;;;;5084299;28;20070;-68
2023/12/07 10:28:27;;;;;;;29.63;13.07;;;2.60;99.90;;;;;;5063314;28;20035;-69
2023/12/07 10:30:53;;;;;;;25.20;13.03;;;2.60;99.90;;;;;;5087024;28;20055;-69
2023/12/07 10:33:22;;;;;;;27.87;13.23;;;2.70;99.90;;;;;;5084562;28;20039;-69
2023/12/07 10:35:50;;;;;;;26.08;12.00;;;2.80;99.90;;;;;;5073413;28;20048;-68
2023/12/07 10:38:16;;;;;;;26.30;12.52;;;2.80;99.90;;;;;;5074755;28;20115;-69
2023/12/07 10:40:42;;;;;;;27.77;13.07;;;2.90;99.90;;;;;;5080101;28;20055;-69
2023/12/07 10:43:08;;;;;;;26.27;12.83;;;3.00;99.90;;;;;;5078095;28;20587;-68
2023/12/07 10:45:35;;;;;;;26.75;12.55;;;3.00;99.90;;;;;;5084867;28;20052;-69
2023/12/07 10:48:08;;;;;;;28.65;12.05;;;3.10;99.90;;;;;;5082612;28;20422;-69
2023/12/07 10:50:37;;;;;;;25.08;12.43;;;3.10;99.90;;;;;;5078710;28;20044;-68
2023/12/07 10:53:21;;;;;;;23.65;12.63;;;3.20;99.90;;;;;;5080694;28;20087;-70
2023/12/07 10:55:55;;;;;;;19.83;11.25;;;3.30;99.90;;;;;;5083849;28;20481;-68
2023/12/07 10:58:25;;;;;;;25.75;13.05;;;3.30;99.90;;;;;;5082918;28;20224;-68
2023/12/07 11:00:52;;;;;;;23.15;11.40;;;3.40;99.90;;;;;;5083742;28;20048;-68
2023/12/07 11:03:18;;;;;;;22.80;11.88;;;3.40;99.90;;;;;;5085095;28;20123;-69
2023/12/07 11:05:47;;;;;;;21.30;11.17;;;3.50;99.90;;;;;;5066484;28;20118;-68
2023/12/07 11:08:38;;;;;;;21.75;11.10;;;3.50;99.90;;;;;;5080938;28;20047;-69
2023/12/07 11:11:20;;;;;;;20.77;11.32;;;3.60;99.90;;;;;;5075458;28;20132;-68
2023/12/07 11:13:56;;;;;;;26.42;11.90;;;3.60;99.90;;;;;;5063829;28;20049;-69
2023/12/07 11:16:40;;;;;;;21.38;11.30;;;3.70;99.90;;;;;;5085581;28;20040;-68
2023/12/07 11:19:35;;;;;;;22.13;10.75;;;3.70;99.90;;;;;;5083541;28;20527;-68
2023/12/07 11:22:06;;;;;;;21.17;11.15;;;3.70;99.90;;;;;;5078335;28;20078;-69
2023/12/07 11:24:32;;;;;;;21.08;10.43;;;3.70;99.90;;;;;;5084841;28;20118;-69
2023/12/07 11:26:58;;;;;;;19.43;10.10;;;3.80;99.90;;;;;;5079737;28;20130;-69
2023/12/07 11:29:25;;;;;;;20.38;10.30;;;3.80;99.90;;;;;;5082190;28;20521;-68
2023/12/07 11:31:51;;;;;;;24.60;11.13;;;3.90;99.90;;;;;;5080907;28;20069;-69
2023/12/07 11:34:41;;;;;;;24.38;11.85;;;3.90;99.90;;;;;;5086746;28;20106;-69
2023/12/07 11:37:08;;;;;;;19.75;10.52;;;4.00;99.90;;;;;;5080154;28;20421;-69
2023/12/07 11:39:41;;;;;;;22.45;10.90;;;4.00;99.90;;;;;;5088421;28;20443;-69
2023/12/07 11:42:10;;;;;;;28.50;12.35;;;4.10;99.90;;;;;;5059074;28;20366;-69
2023/12/07 11:44:41;;;;;;;21.70;11.93;;;4.10;99.90;;;;;;5084763;28;20110;-69
2023/12/07 11:47:08;;;;;;;26.10;12.10;;;4.20;99.90;;;;;;5073410;28;20047;-69
2023/12/07 11:49:34;;;;;;;25.35;12.15;;;4.20;99.90;;;;;;5083896;28;20079;-69
2023/12/07 11:52:01;;;;;;;21.92;11.20;;;4.20;99.90;;;;;;5069540;28;20048;-69
2023/12/07 11:54:27;;;;;;;22.40;11.05;;;4.00;99.90;;;;;;5081605;28;20064;-69
2023/12/07 11:56:56;;;;;;;20.40;11.48;;;3.90;99.90;;;;;;5085282;28;20048;-69
2023/12/07 11:59:25;;;;;;;22.08;10.85;;;3.70;99.90;;;;;;5082819;28;20476;-69
2023/12/07 12:01:51;;;;;;;25.80;11.15;;;3.60;99.90;;;;;;5087079;28;20087;-69
2023/12/07 12:04:18;;;;;;;27.90;10.82;;;3.50;99.90;;;;;;5084388;28;20453;-69
2023/12/07 12:06:44;;;;;;;20.58;10.18;;;3.40;99.90;;;;;;5069959;28;20520;-67
2023/12/07 12:09:18;;;;;;;22.20;10.60;;;3.30;99.90;;;;;;5085082;28;20044;-67
2023/12/07 12:11:46;;;;;;;22.00;10.32;;;3.20;99.90;;;;;;5084600;28;20407;-67
2023/12/07 12:14:16;;;;;;;23.52;10.38;;;3.10;99.90;;;;;;5085936;28;20048;-67
2023/12/07 12:16:46;;;;;;;18.50;10.07;;;3.00;99.90;;;;;;5083930;28;20419;-67
2023/12/07 12:19:12;;;;;;;19.42;10.45;;;3.00;99.90;;;;;;5068075;28;20048;-67
2023/12/07 12:21:40;;;;;;;21.03;9.97;;;2.90;99.90;;;;;;5083204;28;20553;-67
2023/12/07 12:24:08;;;;;;;19.02;10.07;;;2.80;99.90;;;;;;5080162;28;20039;-67
2023/12/07 12:26:34;;;;;;;22.25;10.55;;;2.70;99.90;;;;;;5085086;28;20067;-67
2023/12/07 12:29:01;;;;;;;19.02;10.18;;;2.70;99.90;;;;;;5082958;28;20039;-67
2023/12/07 12:31:28;;;;;;;27.23;10.68;;;2.60;99.90;;;;;;5079554;28;20052;-67
2023/12/07 12:33:54;;;;;;;21.90;9.90;;;2.70;99.90;;;;;;5077570;28;20039;-67
2023/12/07 12:36:23;;;;;;;27.92;10.88;;;2.60;99.90;;;;;;5083976;28;20051;-67
2023/12/07 12:38:52;;;;;;;22.55;10.82;;;2.60;99.90;;;;;;5086839;28;20031;-67
2023/12/07 12:41:21;;;;;;;22.08;10.27;;;2.50;99.90;;;;;;5081398;28;20528;-67
2023/12/07 12:43:48;;;;;;;19.48;9.90;;;2.50;99.90;;;;;;5091170;28;20040;-68
2023/12/07 12:46:15;;;;;;;22.52;10.10;;;2.40;99.90;;;;;;5083063;28;20031;-67